createdAt,value
2023-01-29T10:07:33.481Z,10.33
2023-01-29T10:10:21.022Z,10.03
2023-01-29T10:13:08.648Z,11.80
2023-01-29T10:15:46.688Z,11.77
2023-01-29T10:18:48.163Z,11.40
2023-01-29T10:21:39.068Z,11.23
2023-01-29T10:24:17.307Z,13.20
2023-01-29T10:26:46.959Z,12.20
2023-01-29T10:29:20.161Z,12.20
2023-01-29T10:31:53.421Z,11.63
2023-01-29T10:34:29.550Z,12.30
2023-01-29T10:36:57.768Z,12.13
2023-01-29T10:39:27.478Z,11.63
2023-01-29T10:42:13.951Z,12.10
2023-01-29T10:44:54.341Z,12.50
2023-01-29T10:47:36.387Z,12.17
2023-01-29T10:50:18.827Z,11.73
2023-01-29T10:53:06.139Z,11.67
2023-01-29T10:55:44.729Z,12.90
2023-01-29T10:58:27.535Z,13.90
2023-01-29T11:00:55.405Z,13.03
2023-01-29T11:03:28.229Z,13.50
2023-01-29T11:06:02.511Z,12.47
2023-01-29T11:08:36.102Z,13.90
2023-01-29T11:11:10.316Z,14.03
2023-01-29T11:13:44.737Z,13.63
2023-01-29T11:16:15.369Z,13.37
2023-01-29T11:18:57.892Z,13.23
2023-01-29T11:21:28.095Z,13.43
2023-01-29T11:24:12.692Z,14.10
2023-01-29T11:26:43.318Z,13.67
2023-01-29T11:29:38.304Z,14.63
2023-01-29T11:32:08.285Z,14.90
2023-01-29T11:34:36.613Z,15.47
2023-01-29T11:37:17.783Z,15.33
2023-01-29T11:39:47.427Z,17.00
2023-01-29T11:42:21.442Z,17.30
2023-01-29T11:44:51.267Z,16.00
2023-01-29T11:47:23.830Z,15.60
2023-01-29T11:49:53.606Z,16.00
2023-01-29T11:52:24.717Z,14.93
2023-01-29T11:54:56.368Z,15.93
2023-01-29T11:57:29.793Z,14.83
2023-01-29T12:00:02.630Z,15.30
2023-01-29T12:02:38.124Z,14.07
2023-01-29T12:05:15.069Z,15.27
2023-01-29T12:07:45.559Z,15.20
2023-01-29T12:10:32.496Z,14.43
2023-01-29T12:13:07.293Z,14.67
2023-01-29T12:15:37.321Z,15.70
2023-01-29T12:18:13.892Z,14.87
2023-01-29T12:20:45.651Z,14.37
2023-01-29T12:23:28.309Z,15.60
2023-01-29T12:26:02.138Z,16.03
2023-01-29T12:28:49.464Z,16.00
2023-01-29T12:31:27.441Z,15.60
2023-01-29T12:34:02.364Z,15.70
2023-01-29T12:36:36.338Z,15.67
2023-01-29T12:39:05.004Z,16.03
2023-01-29T12:41:40.409Z,16.20
2023-01-29T12:44:15.432Z,17.33
2023-01-29T12:46:50.424Z,16.63
2023-01-29T12:49:24.266Z,15.97
2023-01-29T12:52:00.052Z,17.10
2023-01-29T12:54:38.346Z,15.97
2023-01-29T12:57:15.998Z,16.37
2023-01-29T12:59:47.083Z,16.33
2023-01-29T13:02:31.227Z,16.60
2023-01-29T13:05:04.241Z,16.67
2023-01-29T13:07:36.814Z,16.67
2023-01-29T13:10:09.677Z,15.97
2023-01-29T13:12:39.745Z,16.87
2023-01-29T13:15:18.642Z,15.47
2023-01-29T13:17:52.485Z,17.37
2023-01-29T13:20:25.173Z,17.17
2023-01-29T13:22:55.396Z,17.83
2023-01-29T13:25:23.314Z,18.07
2023-01-29T13:27:51.614Z,16.97
2023-01-29T13:30:27.997Z,19.67
2023-01-29T13:33:09.376Z,17.83
2023-01-29T13:35:41.353Z,17.30
2023-01-29T13:38:24.887Z,17.57
2023-01-29T13:40:53.779Z,17.27
2023-01-29T13:43:23.866Z,17.73
2023-01-29T13:45:53.900Z,17.60
2023-01-29T13:48:28.237Z,17.47
2023-01-29T13:50:57.721Z,17.00
2023-01-29T13:53:28.571Z,16.47
2023-01-29T13:55:56.716Z,16.17
2023-01-29T13:58:54.407Z,16.83
2023-01-29T14:01:55.650Z,15.17
2023-01-29T14:04:29.634Z,15.33
2023-01-29T14:06:58.666Z,16.13
2023-01-29T14:09:48.628Z,16.50
2023-01-29T14:12:47.877Z,15.67
2023-01-29T14:15:22.169Z,15.97
2023-01-29T14:18:00.670Z,16.43
2023-01-29T14:20:46.449Z,15.53
2023-01-29T14:23:28.529Z,15.27
2023-01-29T14:25:57.258Z,16.27
2023-01-29T14:28:29.333Z,16.20
2023-01-29T14:30:57.849Z,15.37
2023-01-29T14:33:29.827Z,15.93
2023-01-29T14:35:59.499Z,16.20
2023-01-29T14:38:29.755Z,15.03
2023-01-29T14:41:09.843Z,16.07
2023-01-29T14:43:37.731Z,15.20
2023-01-29T14:46:44.052Z,14.97
2023-01-29T14:49:12.465Z,14.80
2023-01-29T14:51:45.894Z,15.67
2023-01-29T14:54:23.667Z,15.43
2023-01-29T14:56:59.681Z,15.93
2023-01-29T14:59:33.807Z,15.00
2023-01-29T15:02:12.755Z,15.47
2023-01-29T15:04:45.945Z,15.77
2023-01-29T15:07:26.371Z,15.33
2023-01-29T15:10:18.851Z,15.73
2023-01-29T15:12:51.894Z,14.07
2023-01-29T15:15:27.504Z,14.63
2023-01-29T15:18:00.810Z,14.97
2023-01-29T15:20:34.311Z,15.53
2023-01-29T15:23:07.018Z,16.43
2023-01-29T15:25:38.200Z,15.87
2023-01-29T15:28:12.282Z,14.43
2023-01-29T15:30:43.131Z,15.17
2023-01-29T15:33:12.569Z,16.57
2023-01-29T15:35:42.251Z,16.27
2023-01-29T15:38:18.601Z,16.70
2023-01-29T15:40:54.171Z,16.17
2023-01-29T15:43:24.044Z,15.20
2023-01-29T15:45:54.356Z,16.87
2023-01-29T15:48:29.229Z,15.53
2023-01-29T15:50:57.847Z,14.50
2023-01-29T15:53:32.058Z,14.73
2023-01-29T15:56:00.197Z,15.13
2023-01-29T15:58:32.102Z,16.20
2023-01-29T16:01:01.820Z,15.40
2023-01-29T16:03:33.499Z,15.80
2023-01-29T16:06:02.656Z,16.17
2023-01-29T16:08:31.969Z,15.40
2023-01-29T16:11:03.701Z,15.07
2023-01-29T16:13:33.930Z,14.87
2023-01-29T16:16:04.926Z,15.33
2023-01-29T16:18:36.427Z,14.33
2023-01-29T16:21:09.025Z,14.00
2023-01-29T16:23:43.085Z,15.27
2023-01-29T16:26:16.654Z,14.97
2023-01-29T16:28:45.920Z,13.80
2023-01-29T16:31:15.358Z,15.63
2023-01-29T16:33:45.677Z,14.43
2023-01-29T16:36:18.525Z,14.40
2023-01-29T16:38:51.847Z,14.57
2023-01-29T16:41:31.831Z,13.63
2023-01-29T16:44:01.929Z,13.90
2023-01-29T16:46:46.124Z,14.73
2023-01-29T16:49:44.655Z,14.70
2023-01-29T16:52:21.610Z,15.27
2023-01-29T16:54:50.889Z,14.30
2023-01-29T16:57:23.773Z,14.73
2023-01-29T16:59:56.841Z,16.03
2023-01-29T17:02:28.447Z,15.90
2023-01-29T17:05:01.277Z,16.47
2023-01-29T17:07:29.887Z,16.20
2023-01-29T17:10:01.630Z,16.30
2023-01-29T17:12:31.696Z,16.40
2023-01-29T17:15:01.690Z,15.37
2023-01-29T17:17:34.290Z,15.87
2023-01-29T17:20:13.953Z,18.80
2023-01-29T17:22:41.780Z,17.73
2023-01-29T17:25:15.761Z,17.63
2023-01-29T17:27:51.561Z,16.77
2023-01-29T17:30:20.864Z,15.90
2023-01-29T17:32:48.823Z,16.77
2023-01-29T17:35:18.364Z,16.07
2023-01-29T17:37:48.829Z,15.87
2023-01-29T17:40:29.383Z,15.73
2023-01-29T17:42:57.150Z,16.27
2023-01-29T17:45:25.102Z,16.30
2023-01-29T17:47:52.924Z,15.27
2023-01-29T17:50:24.418Z,16.63
2023-01-29T17:52:53.164Z,16.10
2023-01-29T17:55:22.812Z,15.63
2023-01-29T17:57:50.615Z,15.40
2023-01-29T18:00:20.572Z,15.87
2023-01-29T18:02:48.478Z,15.23
2023-01-29T18:05:18.254Z,15.97
2023-01-29T18:07:47.929Z,16.00
2023-01-29T18:10:19.446Z,15.97
2023-01-29T18:12:48.798Z,16.17
2023-01-29T18:15:16.976Z,16.83
2023-01-29T18:17:48.329Z,15.90
2023-01-29T18:20:22.077Z,16.87
2023-01-29T18:22:50.023Z,16.53
2023-01-29T18:25:18.907Z,17.13
2023-01-29T18:27:51.593Z,17.33
2023-01-29T18:30:19.743Z,15.77
2023-01-29T18:32:48.302Z,17.10
2023-01-29T18:35:17.489Z,15.90
2023-01-29T18:37:45.619Z,17.03
2023-01-29T18:40:17.140Z,16.43
2023-01-29T18:42:47.547Z,16.77
2023-01-29T18:45:17.189Z,16.13
2023-01-29T18:47:48.579Z,17.20
2023-01-29T18:50:16.984Z,15.73
2023-01-29T18:52:44.851Z,16.37
2023-01-29T18:55:12.813Z,16.13
2023-01-29T18:58:27.204Z,15.67
2023-01-29T19:00:29.860Z,16.13
2023-01-29T19:02:57.725Z,16.63
2023-01-29T19:05:25.661Z,15.40
2023-01-29T19:07:53.615Z,15.50
2023-01-29T19:10:21.759Z,15.33
2023-01-29T19:12:49.608Z,16.00
2023-01-29T19:15:20.810Z,16.20
2023-01-29T19:17:50.052Z,15.83
2023-01-29T19:20:18.802Z,15.97
2023-01-29T19:22:46.796Z,15.80
2023-01-29T19:25:16.031Z,15.10
2023-01-29T19:27:44.666Z,16.20
2023-01-29T19:30:13.800Z,15.33
2023-01-29T19:32:41.781Z,15.47
2023-01-29T19:35:11.298Z,15.73
2023-01-29T19:37:39.152Z,16.07
2023-01-29T19:40:08.192Z,16.10
2023-01-29T19:42:37.410Z,19.33
2023-01-29T19:45:07.451Z,16.27
2023-01-29T19:47:39.768Z,15.77
2023-01-29T19:50:08.668Z,15.87
2023-01-29T19:52:50.756Z,16.63
2023-01-29T19:55:20.885Z,16.23
2023-01-29T19:57:49.335Z,16.17
2023-01-29T20:00:19.500Z,15.97
2023-01-29T20:02:47.786Z,15.63
2023-01-29T20:05:20.277Z,16.80
2023-01-29T20:07:50.555Z,16.20
2023-01-29T20:10:18.981Z,16.53
2023-01-29T20:12:50.078Z,16.23
2023-01-29T20:15:17.988Z,15.60
2023-01-29T20:17:45.973Z,17.40
2023-01-29T20:20:16.189Z,17.43
2023-01-29T20:22:44.638Z,15.97
2023-01-29T20:25:17.008Z,15.93
2023-01-29T20:27:44.881Z,17.20
2023-01-29T20:30:13.813Z,17.27
2023-01-29T20:32:41.787Z,16.50
2023-01-29T20:35:10.752Z,16.80
2023-01-29T20:37:38.676Z,16.47
2023-01-29T20:40:07.405Z,15.87
2023-01-29T20:42:36.650Z,16.77
2023-01-29T20:45:05.677Z,18.57
2023-01-29T20:47:33.503Z,16.53
2023-01-29T20:50:08.274Z,17.27
2023-01-29T20:52:36.328Z,17.30
2023-01-29T20:55:08.603Z,17.13
2023-01-29T20:57:38.296Z,18.40
2023-01-29T21:00:08.265Z,16.43
2023-01-29T21:02:36.405Z,17.27
2023-01-29T21:05:06.466Z,17.37
2023-01-29T21:07:36.000Z,17.63
2023-01-29T21:10:03.979Z,16.67
2023-01-29T21:12:31.765Z,17.87
2023-01-29T21:15:00.906Z,17.93
2023-01-29T21:17:28.740Z,16.90
2023-01-29T21:19:56.634Z,17.37
2023-01-29T21:22:24.972Z,18.00
2023-01-29T21:24:52.904Z,17.13
2023-01-29T21:27:20.711Z,17.93
2023-01-29T21:29:48.525Z,16.97
2023-01-29T21:32:18.632Z,17.73
2023-01-29T21:34:46.707Z,17.63
2023-01-29T21:37:14.740Z,18.63
2023-01-29T21:39:42.557Z,18.43
2023-01-29T21:42:42.311Z,19.23
2023-01-29T21:45:11.111Z,17.23
2023-01-29T21:47:40.278Z,17.67
2023-01-29T21:50:09.021Z,18.43
2023-01-29T21:52:36.845Z,16.87
2023-01-29T21:55:05.984Z,18.23
2023-01-29T21:57:34.033Z,17.13
2023-01-29T22:00:01.972Z,17.47
2023-01-29T22:02:31.886Z,17.20
2023-01-29T22:05:18.129Z,16.73
2023-01-29T22:07:47.719Z,16.90
2023-01-29T22:10:17.206Z,16.50
2023-01-29T22:12:46.948Z,17.57
2023-01-29T22:15:16.073Z,18.37
2023-01-29T22:17:46.485Z,17.40
2023-01-29T22:20:17.154Z,18.13
2023-01-29T22:22:45.654Z,18.07
2023-01-29T22:25:13.777Z,17.50
2023-01-29T22:27:41.756Z,16.70
2023-01-29T22:30:11.254Z,19.07
2023-01-29T22:32:39.090Z,16.93
2023-01-29T22:35:08.112Z,18.90
2023-01-29T22:37:37.345Z,17.50
2023-01-29T22:40:06.241Z,17.47
2023-01-29T22:42:34.049Z,18.00
2023-01-29T22:45:01.881Z,16.93
2023-01-29T22:47:29.687Z,18.53
2023-01-29T22:49:57.485Z,18.70
2023-01-29T22:52:27.832Z,17.20
2023-01-29T22:54:57.076Z,17.73
2023-01-29T22:57:24.902Z,18.90
2023-01-29T22:59:53.640Z,17.60
2023-01-29T23:02:21.846Z,18.70
2023-01-29T23:04:49.752Z,17.80
2023-01-29T23:07:17.595Z,17.50
2023-01-29T23:09:47.304Z,18.00
2023-01-29T23:12:16.932Z,18.37
2023-01-29T23:14:44.815Z,16.93
2023-01-29T23:17:12.806Z,17.80
2023-01-29T23:19:40.601Z,17.97
2023-01-29T23:22:08.375Z,18.33
2023-01-29T23:24:36.231Z,17.13
2023-01-29T23:27:15.211Z,18.37
2023-01-29T23:29:45.939Z,16.70
2023-01-29T23:32:16.416Z,17.30
2023-01-29T23:34:46.447Z,16.33
2023-01-29T23:37:14.879Z,15.83
2023-01-29T23:39:42.680Z,16.23
2023-01-29T23:42:10.612Z,17.03
2023-01-29T23:44:40.168Z,16.20
2023-01-29T23:47:09.872Z,15.93
2023-01-29T23:49:38.114Z,15.53
2023-01-29T23:52:08.704Z,16.47
2023-01-29T23:54:36.550Z,16.30
2023-01-29T23:57:04.840Z,16.20
2023-01-29T23:59:32.634Z,16.70
